createdAt,value
2023-04-09T00:10:31.745Z,67.2
2023-04-09T00:25:41.782Z,67.2
2023-04-09T00:40:51.396Z,67.1
2023-04-09T00:56:01.050Z,67.3
2023-04-09T01:11:10.654Z,67.2
2023-04-09T01:26:20.660Z,67.1
2023-04-09T01:41:30.051Z,67.2
2023-04-09T01:56:39.947Z,67.4
2023-04-09T02:11:49.580Z,67.7
2023-04-09T02:26:58.862Z,67.7
2023-04-09T02:42:08.753Z,67.8
2023-04-09T02:57:18.474Z,67.9
2023-04-09T03:12:28.402Z,68.2
2023-04-09T03:27:37.682Z,68.3
2023-04-09T03:42:47.098Z,68.5
2023-04-09T03:57:56.516Z,68.9
2023-04-09T04:13:06.108Z,68.9
2023-04-09T04:28:15.876Z,68.6
2023-04-09T04:43:25.490Z,68.2
2023-04-09T04:58:35.288Z,68.1
2023-04-09T05:13:44.661Z,68.2
2023-04-09T05:28:54.725Z,68.3
2023-04-09T05:44:04.985Z,68.3
2023-04-09T05:59:14.609Z,68.1
2023-04-09T06:14:23.559Z,68.5
2023-04-09T06:29:33.565Z,68.3
2023-04-09T06:44:42.597Z,68.1
2023-04-09T06:59:52.504Z,67.9
2023-04-09T07:15:02.777Z,67.8
2023-04-09T07:30:12.343Z,67.4
2023-04-09T07:45:21.918Z,67.6
2023-04-09T08:00:31.465Z,67.4
2023-04-09T08:15:40.841Z,67.2
2023-04-09T08:30:51.279Z,67.1
2023-04-09T08:46:01.687Z,67
2023-04-09T09:01:14.175Z,66.8
2023-04-09T09:16:24.911Z,66.6
2023-04-09T09:31:34.940Z,66.7
2023-04-09T09:46:44.471Z,66.4
2023-04-09T10:01:54.767Z,66.1
2023-04-09T10:17:05.246Z,65.7
2023-04-09T10:32:15.016Z,65.5
2023-04-09T10:47:25.421Z,65.4
2023-04-09T11:02:35.907Z,65.4
2023-04-09T11:17:46.113Z,64.7
2023-04-09T11:32:56.050Z,65.3
2023-04-09T11:48:06.413Z,65.5
2023-04-09T12:03:17.647Z,65.7
2023-04-09T12:18:27.577Z,64.6
2023-04-09T12:33:37.377Z,65.5
2023-04-09T12:48:47.005Z,65.4
2023-04-09T13:03:59.267Z,65.5
2023-04-09T13:19:09.129Z,64.6
2023-04-09T13:34:19.603Z,64.1
2023-04-09T13:49:29.068Z,64.4
2023-04-09T14:04:40.248Z,64.2
2023-04-09T14:19:51.495Z,62.3
2023-04-09T14:35:03.105Z,59.8
2023-04-09T14:50:13.488Z,59.7
2023-04-09T15:05:23.497Z,58.8
2023-04-09T15:20:34.482Z,57.6
2023-04-09T15:35:44.621Z,57.6
2023-04-09T15:50:56.373Z,54.9
2023-04-09T16:06:06.626Z,55.5
2023-04-09T16:21:17.580Z,52.3
2023-04-09T16:36:28.972Z,49.2
2023-04-09T16:51:35.107Z,57.9
2023-04-09T17:06:42.856Z,61.4
2023-04-09T17:21:52.599Z,62.1
2023-04-09T17:37:01.238Z,62.1
2023-04-09T17:52:10.173Z,62.3
2023-04-09T18:07:19.421Z,62.6
2023-04-09T18:22:28.490Z,62.9
2023-04-09T18:37:37.547Z,63.1
2023-04-09T18:52:46.659Z,63.3
2023-04-09T19:07:56.580Z,63.4
2023-04-09T19:23:05.930Z,63.4
2023-04-09T19:38:15.342Z,63.7
2023-04-09T19:53:24.882Z,63.7
2023-04-09T20:08:34.479Z,63.9
2023-04-09T20:23:43.630Z,64
2023-04-09T20:38:54.606Z,63.9
2023-04-09T20:54:04.376Z,63.9
2023-04-09T21:09:14.152Z,64
2023-04-09T21:24:24.094Z,64
2023-04-09T21:39:33.714Z,64.1
2023-04-09T21:54:43.509Z,64.2
2023-04-09T22:09:53.555Z,64.3
2023-04-09T22:25:02.844Z,64.5
2023-04-09T22:40:12.174Z,64.2
2023-04-09T22:55:21.129Z,64
2023-04-09T23:10:30.701Z,64.1
2023-04-09T23:25:40.431Z,64.1
2023-04-09T23:40:49.954Z,64.2
2023-04-09T23:55:59.379Z,64.2
